Time;durP1;ratioP1;P1;durP2;ratioP2;P2;SDS_P1;SDS_P2;PMS_P1;PMS_P2;Temp;Humidity;BMP_temperature;BMP_pressure;BME280_temperature;BME280_humidity;BME280_pressure;Samples;Min_cycle;Max_cycle;Signal;HPM_P1;HPM_P2
2023/05/07 00:00:42;;;;;;;;;;;;;;;10.43;78.86;101761.50;4114816;28;20045;-65
2023/05/07 00:02:44;;;;;;;;;;;;;;;10.43;78.51;101759.66;4114597;28;20043;-65
2023/05/07 00:04:46;;;;;;;;;;;;;;;10.42;78.60;101760.66;4121328;28;20080;-64
2023/05/07 00:06:48;;;;;;;;;;;;;;;10.42;78.35;101763.38;4113707;28;20037;-64
2023/05/07 00:08:51;;;;;;;;;;;;;;;10.43;78.56;101758.81;4115000;28;20028;-65
2023/05/07 00:10:53;;;;;;;;;;;;;;;10.43;78.67;101750.69;4113236;28;20049;-64
2023/05/07 00:12:56;;;;;;;;;;;;;;;10.40;78.94;101761.81;4111246;28;20061;-64
2023/05/07 00:14:58;;;;;;;;;;;;;;;10.41;78.69;101756.25;4114746;28;20499;-65
2023/05/07 00:17:00;;;;;;;;;;;;;;;10.41;78.58;101758.13;4120260;28;20013;-65
2023/05/07 00:19:02;;;;;;;;;;;;;;;10.40;78.62;101756.41;4114697;28;20026;-65
2023/05/07 00:21:05;;;;;;;;;;;;;;;10.39;78.50;101760.97;4114493;28;20025;-65
2023/05/07 00:23:07;;;;;;;;;;;;;;;10.38;78.67;101755.72;4114675;28;20026;-65
2023/05/07 00:25:11;;;;;;;;;;;;;;;10.37;78.96;101757.53;4113782;28;20012;-66
2023/05/07 00:27:13;;;;;;;;;;;;;;;10.37;78.99;101754.84;4113914;28;20025;-65
2023/05/07 00:29:15;;;;;;;;;;;;;;;10.40;78.56;101756.41;4114299;28;19961;-65
2023/05/07 00:31:17;;;;;;;;;;;;;;;10.38;78.34;101753.84;4112292;28;19969;-66
2023/05/07 00:33:20;;;;;;;;;;;;;;;10.44;77.72;101755.94;4113833;28;20544;-65
2023/05/07 00:35:22;;;;;;;;;;;;;;;10.45;77.57;101752.25;4114501;28;20016;-66
2023/05/07 00:37:25;;;;;;;;;;;;;;;10.45;77.30;101751.38;4114558;28;20021;-66
2023/05/07 00:39:27;;;;;;;;;;;;;;;10.49;77.20;101754.66;4112100;28;20021;-65
2023/05/07 00:41:31;;;;;;;;;;;;;;;10.44;77.01;101753.25;4114648;28;20063;-66
2023/05/07 00:43:33;;;;;;;;;;;;;;;10.43;77.01;101756.09;4120501;28;20020;-66
2023/05/07 00:45:35;;;;;;;;;;;;;;;10.43;77.26;101756.94;4112882;28;20024;-65
2023/05/07 00:47:37;;;;;;;;;;;;;;;10.45;76.99;101756.78;4114329;28;20016;-65
2023/05/07 00:49:40;;;;;;;;;;;;;;;10.46;76.73;101753.94;4112186;28;19926;-65
2023/05/07 00:51:42;;;;;;;;;;;;;;;10.44;76.76;101753.25;4112766;28;20041;-66
2023/05/07 00:53:44;;;;;;;;;;;;;;;10.44;76.71;101747.84;4114675;28;20025;-66
2023/05/07 00:55:46;;;;;;;;;;;;;;;10.43;76.80;101754.25;4113902;28;20017;-65
2023/05/07 00:57:50;;;;;;;;;;;;;;;10.41;77.02;101750.00;4112065;28;20029;-66
2023/05/07 00:59:52;;;;;;;;;;;;;;;10.40;76.65;101749.13;4119950;28;19926;-66
2023/05/07 01:01:54;;;;;;;;;;;;;;;10.39;77.11;101744.75;4112399;28;20016;-66
2023/05/07 01:03:57;;;;;;;;;;;;;;;10.40;76.94;101754.53;4113998;28;20041;-65
2023/05/07 01:05:59;;;;;;;;;;;;;;;10.39;76.97;101755.56;4111175;28;20016;-66
2023/05/07 01:08:02;;;;;;;;;;;;;;;10.40;76.92;101745.59;4113611;28;20009;-66
2023/05/07 01:10:05;;;;;;;;;;;;;;;10.37;76.83;101752.13;4110575;28;19934;-65
2023/05/07 01:12:07;;;;;;;;;;;;;;;10.38;76.66;101748.44;4111906;28;20017;-66
2023/05/07 01:14:11;;;;;;;;;;;;;;;10.40;76.62;101753.69;4104376;28;20009;-66
2023/05/07 01:16:12;;;;;;;;;;;;;;;10.39;76.71;101750.16;4113151;28;20019;-64
2023/05/07 01:18:15;;;;;;;;;;;;;;;10.41;76.65;101758.13;4112352;28;20020;-65
2023/05/07 01:20:18;;;;;;;;;;;;;;;10.42;76.63;101760.66;4119881;28;20426;-65
2023/05/07 01:22:28;;;;;;;;;;;;;;;10.40;76.63;101762.66;4103262;28;20028;-65
2023/05/07 01:24:30;;;;;;;;;;;;;;;10.37;77.00;101762.94;4112053;28;20024;-65
2023/05/07 01:26:32;;;;;;;;;;;;;;;10.38;76.95;101759.25;4113870;28;20107;-65
2023/05/07 01:28:34;;;;;;;;;;;;;;;10.42;76.49;101755.25;4113750;28;20022;-65
2023/05/07 01:30:36;;;;;;;;;;;;;;;10.41;76.42;101758.13;4111663;28;19930;-65
2023/05/07 01:32:42;;;;;;;;;;;;;;;10.38;76.84;101750.31;4112013;28;20037;-65
2023/05/07 01:34:44;;;;;;;;;;;;;;;10.33;76.91;101758.00;4104802;28;20020;-65
2023/05/07 01:36:46;;;;;;;;;;;;;;;10.31;77.27;101752.72;4102311;28;20026;-65
2023/05/07 01:38:50;;;;;;;;;;;;;;;10.31;77.24;101758.09;4120062;28;20690;-65
2023/05/07 01:40:52;;;;;;;;;;;;;;;10.32;77.39;101757.13;4111761;28;20032;-66
2023/05/07 01:42:55;;;;;;;;;;;;;;;10.30;77.47;101753.72;4113302;28;20026;-65
2023/05/07 01:44:58;;;;;;;;;;;;;;;10.32;77.23;101759.81;4111346;28;20477;-66
2023/05/07 01:47:00;;;;;;;;;;;;;;;10.29;77.05;101763.66;4111407;28;20012;-66
2023/05/07 01:49:02;;;;;;;;;;;;;;;10.34;76.78;101757.84;4112277;28;20052;-65
2023/05/07 01:51:04;;;;;;;;;;;;;;;10.29;76.75;101752.88;4112540;28;20443;-66
2023/05/07 01:53:06;;;;;;;;;;;;;;;10.29;76.79;101757.41;4112756;28;20053;-66
2023/05/07 01:55:10;;;;;;;;;;;;;;;10.32;76.52;101757.13;4119110;28;20036;-65
2023/05/07 01:57:12;;;;;;;;;;;;;;;10.31;75.98;101759.97;4119520;28;20021;-65
2023/05/07 01:59:15;;;;;;;;;;;;;;;10.30;76.03;101761.84;4111782;28;20042;-65
2023/05/07 02:01:17;;;;;;;;;;;;;;;10.31;76.25;101768.91;4112904;28;20476;-66
2023/05/07 02:03:19;;;;;;;;;;;;;;;10.27;76.43;101772.94;4110579;28;20062;-65
2023/05/07 02:05:30;;;;;;;;;;;;;;;10.29;76.13;101762.81;4111207;28;20101;-65
2023/05/07 02:07:37;;;;;;;;;;;;;;;10.28;76.27;101774.63;4111220;28;20024;-65
2023/05/07 02:09:39;;;;;;;;;;;;;;;10.23;76.26;101775.06;4110481;28;20016;-66
2023/05/07 02:11:42;;;;;;;;;;;;;;;10.22;76.72;101773.38;4119394;28;19972;-65
2023/05/07 02:13:44;;;;;;;;;;;;;;;10.18;76.43;101771.13;4112651;28;20020;-65
2023/05/07 02:15:50;;;;;;;;;;;;;;;10.22;76.35;101773.38;4119448;28;20022;-66
2023/05/07 02:17:59;;;;;;;;;;;;;;;10.25;75.95;101778.47;4110720;28;20037;-65
2023/05/07 02:20:01;;;;;;;;;;;;;;;10.31;75.55;101774.31;4119401;28;20484;-65
2023/05/07 02:22:05;;;;;;;;;;;;;;;10.27;75.64;101776.47;4119735;28;20402;-66
2023/05/07 02:24:07;;;;;;;;;;;;;;;10.27;75.39;101778.34;4111400;28;20028;-65
2023/05/07 02:26:12;;;;;;;;;;;;;;;10.27;75.12;101776.47;4111111;28;20083;-66
2023/05/07 02:28:15;;;;;;;;;;;;;;;10.27;75.57;101775.63;4118216;28;20375;-65
2023/05/07 02:30:43;;;;;;;;;;;;;;;10.26;75.76;101784.72;4110974;28;20012;-65
2023/05/07 02:32:45;;;;;;;;;;;;;;;10.25;75.78;101777.59;4112976;28;19937;-66
2023/05/07 02:34:47;;;;;;;;;;;;;;;10.28;75.46;101782.72;4111831;28;20009;-65
2023/05/07 02:36:49;;;;;;;;;;;;;;;10.23;75.38;101775.06;4110614;28;20024;-65
2023/05/07 02:38:56;;;;;;;;;;;;;;;10.20;75.76;101779.91;4111577;28;19984;-65
2023/05/07 02:40:58;;;;;;;;;;;;;;;10.16;75.92;101783.94;4113054;28;20492;-66
2023/05/07 02:43:00;;;;;;;;;;;;;;;10.15;76.17;101784.91;4110641;28;20013;-66
2023/05/07 02:45:03;;;;;;;;;;;;;;;10.17;75.96;101788.31;4111474;28;20037;-65
2023/05/07 02:47:08;;;;;;;;;;;;;;;10.21;75.23;101781.63;4112130;28;20017;-65
2023/05/07 02:49:10;;;;;;;;;;;;;;;10.23;75.23;101774.22;4110743;28;20021;-64
2023/05/07 02:51:13;;;;;;;;;;;;;;;10.21;75.40;101785.16;4109795;28;20033;-66
2023/05/07 02:53:17;;;;;;;;;;;;;;;10.16;75.68;101792.88;4110497;28;20492;-66
2023/05/07 02:55:19;;;;;;;;;;;;;;;10.13;76.17;101787.75;4112854;28;20025;-66
2023/05/07 02:57:21;;;;;;;;;;;;;;;10.13;75.98;101787.75;4110095;28;20032;-66
2023/05/07 02:59:25;;;;;;;;;;;;;;;10.16;76.02;101790.16;4117939;28;20029;-66
2023/05/07 03:01:28;;;;;;;;;;;;;;;10.16;75.97;101789.34;4118537;28;20040;-66
2023/05/07 03:03:36;;;;;;;;;;;;;;;10.15;76.03;101795.72;4119178;28;20014;-65
2023/05/07 03:05:38;;;;;;;;;;;;;;;10.13;76.43;101793.16;4108582;28;20017;-66
2023/05/07 03:07:40;;;;;;;;;;;;;;;10.13;76.40;101797.72;4113226;28;20024;-66
2023/05/07 03:09:42;;;;;;;;;;;;;;;10.14;76.61;101796.72;4112704;28;20060;-66
2023/05/07 03:11:44;;;;;;;;;;;;;;;10.13;77.03;101795.03;4110695;28;20371;-65
2023/05/07 03:13:48;;;;;;;;;;;;;;;10.12;77.06;101796.84;4109895;28;20022;-65
2023/05/07 03:15:51;;;;;;;;;;;;;;;10.14;76.79;101797.56;4118687;28;20061;-66
2023/05/07 03:17:54;;;;;;;;;;;;;;;10.14;76.90;101794.88;4119379;28;20075;-66
2023/05/07 03:19:56;;;;;;;;;;;;;;;10.15;76.97;101799.25;4112168;28;20022;-65
2023/05/07 03:21:58;;;;;;;;;;;;;;;10.20;76.15;101805.09;4109896;28;20022;-66
2023/05/07 03:24:00;;;;;;;;;;;;;;;10.20;76.33;101805.09;4112465;28;20656;-66
2023/05/07 03:26:02;;;;;;;;;;;;;;;10.21;76.06;101812.16;4110406;28;20017;-65
2023/05/07 03:28:06;;;;;;;;;;;;;;;10.22;76.17;101810.31;4111423;28;20194;-66
2023/05/07 03:30:20;;;;;;;;;;;;;;;10.18;76.45;101814.31;4114954;28;20089;-66
2023/05/07 03:32:22;;;;;;;;;;;;;;;10.17;76.30;101812.59;4113797;28;20061;-66
2023/05/07 03:34:26;;;;;;;;;;;;;;;10.20;76.04;101813.19;4115606;28;20456;-66
2023/05/07 03:36:28;;;;;;;;;;;;;;;10.20;76.11;101818.59;4113512;28;20026;-66
2023/05/07 03:38:31;;;;;;;;;;;;;;;10.19;76.09;101813.34;4113665;28;20025;-66
2023/05/07 03:40:34;;;;;;;;;;;;;;;10.19;75.77;101814.16;4121175;28;20466;-64
2023/05/07 03:42:37;;;;;;;;;;;;;;;10.17;76.13;101815.31;4112646;28;20021;-65
2023/05/07 03:44:39;;;;;;;;;;;;;;;10.17;76.03;101818.00;4119785;28;20020;-65
2023/05/07 03:46:44;;;;;;;;;;;;;;;10.16;76.17;101814.47;4121512;28;20020;-64
2023/05/07 03:48:47;;;;;;;;;;;;;;;10.17;76.38;101821.56;4120645;28;20516;-66
2023/05/07 03:50:54;;;;;;;;;;;;;;;10.17;75.96;101823.41;4114050;28;20045;-65
2023/05/07 03:52:59;;;;;;;;;;;;;;;10.14;76.28;101829.09;4105226;28;20017;-66
2023/05/07 03:55:02;;;;;;;;;;;;;;;10.11;76.51;101827.56;4105416;28;19932;-65
2023/05/07 03:57:05;;;;;;;;;;;;;;;10.09;76.70;101833.13;4121734;28;20022;-66
2023/05/07 03:59:08;;;;;;;;;;;;;;;10.08;76.76;101831.41;4113618;28;20021;-66
2023/05/07 04:01:11;;;;;;;;;;;;;;;10.07;76.95;101840.47;4121206;28;20025;-66
2023/05/07 04:03:13;;;;;;;;;;;;;;;10.07;76.60;101837.78;4120657;28;20029;-66
2023/05/07 04:05:16;;;;;;;;;;;;;;;10.05;76.96;101829.00;4112981;28;20025;-65
2023/05/07 04:07:21;;;;;;;;;;;;;;;10.01;76.75;101826.72;4104973;28;20025;-65
2023/05/07 04:09:26;;;;;;;;;;;;;;;10.00;76.90;101823.19;4121397;28;20351;-65
2023/05/07 04:11:28;;;;;;;;;;;;;;;9.99;77.06;101831.44;4106777;28;20042;-65
2023/05/07 04:13:30;;;;;;;;;;;;;;;10.01;76.93;101824.88;4111547;28;20025;-65
2023/05/07 04:15:33;;;;;;;;;;;;;;;10.02;76.52;101826.59;4111275;28;19931;-64
2023/05/07 04:17:35;;;;;;;;;;;;;;;10.03;76.82;101822.91;4113382;28;20021;-64
2023/05/07 04:19:37;;;;;;;;;;;;;;;10.05;76.23;101837.09;4121131;28;20029;-64
2023/05/07 04:21:39;;;;;;;;;;;;;;;10.02;76.48;101831.97;4113854;28;20029;-65
2023/05/07 04:23:43;;;;;;;;;;;;;;;10.01;76.62;101835.66;4111194;28;20041;-65
2023/05/07 04:25:47;;;;;;;;;;;;;;;10.03;76.64;101840.91;4112976;28;20351;-65
2023/05/07 04:27:59;;;;;;;;;;;;;;;10.04;76.61;101839.94;4097034;29;20368;-64
2023/05/07 04:30:03;;;;;;;;;;;;;;;10.07;76.27;101839.66;4119649;28;20012;-65
2023/05/07 04:32:09;;;;;;;;;;;;;;;10.10;76.37;101842.88;4110664;28;20029;-65
2023/05/07 04:34:14;;;;;;;;;;;;;;;10.08;75.86;101844.91;4111736;28;20032;-66
2023/05/07 04:36:16;;;;;;;;;;;;;;;10.06;76.04;101846.91;4121076;28;20404;-65
2023/05/07 04:38:25;;;;;;;;;;;;;;;10.07;75.97;101850.44;4121152;28;20026;-66
2023/05/07 04:40:33;;;;;;;;;;;;;;;10.04;76.42;101850.72;4120655;28;20024;-66
2023/05/07 04:42:37;;;;;;;;;;;;;;;10.00;76.17;101854.72;4120605;28;20025;-66
2023/05/07 04:44:41;;;;;;;;;;;;;;;10.01;76.17;101859.13;4111958;28;20057;-65
2023/05/07 04:46:43;;;;;;;;;;;;;;;10.04;75.76;101861.53;4112800;28;20012;-65
2023/05/07 04:48:46;;;;;;;;;;;;;;;10.04;75.77;101859.66;4113282;28;20016;-65
2023/05/07 04:50:48;;;;;;;;;;;;;;;10.04;75.83;101862.38;4121273;28;20033;-66
2023/05/07 04:52:50;;;;;;;;;;;;;;;10.04;75.87;101858.84;4111428;28;20468;-63
2023/05/07 04:54:52;;;;;;;;;;;;;;;10.05;76.01;101858.69;4105415;28;20029;-67
2023/05/07 04:56:56;;;;;;;;;;;;;;;10.05;76.21;101868.63;4113914;28;20389;-65
2023/05/07 04:58:58;;;;;;;;;;;;;;;10.06;76.16;101862.22;4111684;28;20018;-65
2023/05/07 05:01:00;;;;;;;;;;;;;;;10.07;76.04;101864.78;4111297;28;20559;-65
2023/05/07 05:03:03;;;;;;;;;;;;;;;10.08;75.82;101866.50;4113780;28;20025;-64
2023/05/07 05:05:05;;;;;;;;;;;;;;;10.09;76.05;101868.19;4111640;28;20037;-66
2023/05/07 05:07:07;;;;;;;;;;;;;;;10.12;75.66;101869.75;4119967;28;20033;-65
2023/05/07 05:09:09;;;;;;;;;;;;;;;10.13;74.76;101871.44;4104525;28;20024;-65
2023/05/07 05:11:12;;;;;;;;;;;;;;;10.08;75.07;101874.59;4088599;29;20043;-66
2023/05/07 05:13:16;;;;;;;;;;;;;;;10.11;74.90;101870.75;4120813;28;20376;-65
2023/05/07 05:15:18;;;;;;;;;;;;;;;10.13;74.26;101865.22;4103638;28;20021;-66
2023/05/07 05:17:21;;;;;;;;;;;;;;;10.12;74.40;101867.03;4113881;28;19973;-66
2023/05/07 05:19:23;;;;;;;;;;;;;;;10.13;74.59;101873.31;4114032;28;20008;-66
2023/05/07 05:21:26;;;;;;;;;;;;;;;10.12;74.84;101872.44;4119531;28;20016;-66
2023/05/07 05:23:33;;;;;;;;;;;;;;;10.14;74.27;101877.69;4120759;28;20024;-66
2023/05/07 05:25:35;;;;;;;;;;;;;;;10.13;74.37;101882.25;4126936;28;20495;-65
2023/05/07 05:27:37;;;;;;;;;;;;;;;10.15;74.17;101884.81;4111641;28;20089;-65
2023/05/07 05:29:42;;;;;;;;;;;;;;;10.14;74.04;101881.25;4110640;28;20371;-67
2023/05/07 05:31:44;;;;;;;;;;;;;;;10.08;74.31;101877.28;4108956;28;20029;-66
2023/05/07 05:33:46;;;;;;;;;;;;;;;10.13;74.03;101878.72;4109728;28;20017;-66
2023/05/07 05:35:48;;;;;;;;;;;;;;;10.14;73.83;101878.56;4111611;28;19991;-66
2023/05/07 05:37:50;;;;;;;;;;;;;;;10.15;73.84;101882.09;4110995;28;20016;-66
2023/05/07 05:39:54;;;;;;;;;;;;;;;10.15;74.39;101879.41;4109897;28;20017;-66
2023/05/07 05:41:59;;;;;;;;;;;;;;;10.18;73.77;101874.56;4119038;28;20028;-65
2023/05/07 05:44:02;;;;;;;;;;;;;;;10.20;72.89;101875.28;4111909;28;20017;-66
2023/05/07 05:46:08;;;;;;;;;;;;;;;10.19;73.49;101873.56;4110147;28;20053;-65
2023/05/07 05:48:10;;;;;;;;;;;;;;;10.18;73.61;101882.66;4118773;28;20059;-66
2023/05/07 05:50:13;;;;;;;;;;;;;;;10.21;73.33;101884.22;4118826;28;20016;-66
2023/05/07 05:52:16;;;;;;;;;;;;;;;10.23;72.67;101883.06;4110400;28;20048;-66
2023/05/07 05:54:19;;;;;;;;;;;;;;;10.25;72.69;101885.59;4118375;28;20029;-66
2023/05/07 05:56:21;;;;;;;;;;;;;;;10.25;72.71;101885.59;4118729;28;20021;-66
2023/05/07 05:58:23;;;;;;;;;;;;;;;10.24;72.83;101884.78;4112265;28;20381;-66
2023/05/07 06:00:31;;;;;;;;;;;;;;;10.26;72.30;101887.31;4110885;28;20016;-66
2023/05/07 06:02:39;;;;;;;;;;;;;;;10.33;72.16;101883.09;4100829;28;20041;-65
2023/05/07 06:04:42;;;;;;;;;;;;;;;10.39;71.26;101890.59;4109178;28;20032;-66
2023/05/07 06:06:46;;;;;;;;;;;;;;;10.40;71.31;101892.28;4118322;28;20017;-65
2023/05/07 06:08:48;;;;;;;;;;;;;;;10.39;71.47;101892.44;4118843;28;20021;-65
2023/05/07 06:10:55;;;;;;;;;;;;;;;10.40;71.29;101892.28;4118604;28;19972;-65
2023/05/07 06:12:57;;;;;;;;;;;;;;;10.43;70.94;101897.38;4110174;28;20030;-66
2023/05/07 06:14:59;;;;;;;;;;;;;;;10.44;70.79;101893.69;4102139;28;20013;-66
2023/05/07 06:17:02;;;;;;;;;;;;;;;10.41;71.19;101902.09;4102517;28;20021;-65
2023/05/07 06:19:05;;;;;;;;;;;;;;;10.38;72.29;101902.38;4109815;28;20064;-65
2023/05/07 06:21:07;;;;;;;;;;;;;;;10.35;72.07;101902.69;4111619;28;20024;-66
2023/05/07 06:23:10;;;;;;;;;;;;;;;10.34;72.63;101906.38;4109579;28;20021;-66
2023/05/07 06:25:13;;;;;;;;;;;;;;;10.33;72.79;101903.81;4109735;28;20064;-65
2023/05/07 06:27:19;;;;;;;;;;;;;;;10.36;72.72;101896.28;4109625;28;20372;-65
2023/05/07 06:29:21;;;;;;;;;;;;;;;10.40;72.31;101900.38;4109301;28;20028;-65
2023/05/07 06:31:23;;;;;;;;;;;;;;;10.43;71.88;101907.34;4110769;28;20032;-65
2023/05/07 06:33:34;;;;;;;;;;;;;;;10.44;71.96;101903.66;4117560;28;20037;-65
2023/05/07 06:35:37;;;;;;;;;;;;;;;10.46;71.89;101910.59;4117888;28;20101;-64
2023/05/07 06:37:42;;;;;;;;;;;;;;;10.44;72.05;101909.06;4102220;28;20017;-66
2023/05/07 06:39:48;;;;;;;;;;;;;;;10.44;72.27;101918.00;4110335;28;19934;-65
2023/05/07 06:41:50;;;;;;;;;;;;;;;10.45;72.57;101914.31;4103737;28;20501;-65
2023/05/07 06:44:00;;;;;;;;;;;;;;;10.48;71.97;101915.00;4119091;28;20029;-65
2023/05/07 06:46:07;;;;;;;;;;;;;;;10.49;72.02;101922.97;4118867;28;20054;-65
2023/05/07 06:48:12;;;;;;;;;;;;;;;10.50;71.66;101929.22;4119542;28;20020;-65
2023/05/07 06:50:30;;;;;;;;;;;;;;;10.54;71.13;101936.03;4118951;28;20020;-65
2023/05/07 06:52:35;;;;;;;;;;;;;;;10.51;71.57;101939.03;4118600;28;20076;-66
2023/05/07 06:54:37;;;;;;;;;;;;;;;10.51;71.19;101933.63;4119142;28;20115;-65
2023/05/07 06:56:40;;;;;;;;;;;;;;;10.49;71.39;101941.03;4103295;28;20008;-66
2023/05/07 06:58:43;;;;;;;;;;;;;;;10.48;72.17;101936.63;4119750;28;20033;-66
2023/05/07 07:00:46;;;;;;;;;;;;;;;10.50;71.65;101935.47;4101957;28;20403;-66
2023/05/07 07:02:48;;;;;;;;;;;;;;;10.52;71.74;101935.34;4103461;28;20048;-66
2023/05/07 07:04:53;;;;;;;;;;;;;;;10.52;72.06;101938.03;4121349;28;20338;-66
2023/05/07 07:06:57;;;;;;;;;;;;;;;10.53;72.14;101945.13;4106160;28;19934;-64
2023/05/07 07:09:00;;;;;;;;;;;;;;;10.57;71.12;101944.69;4113259;28;20021;-64
2023/05/07 07:11:02;;;;;;;;;;;;;;;10.62;70.92;101936.13;4113288;28;19926;-65
2023/05/07 07:13:05;;;;;;;;;;;;;;;10.63;71.13;101930.59;4113325;28;20021;-65
2023/05/07 07:15:08;;;;;;;;;;;;;;;10.67;70.99;101938.38;4115862;28;20024;-64
2023/05/07 07:17:10;;;;;;;;;;;;;;;10.69;70.92;101931.84;4122347;28;20017;-64
2023/05/07 07:19:12;;;;;;;;;;;;;;;10.66;70.53;101921.34;4106514;28;20041;-65
2023/05/07 07:21:14;;;;;;;;;;;;;;;10.76;70.83;101934.81;4112983;28;20464;-64
2023/05/07 07:23:16;;;;;;;;;;;;;;;10.80;71.20;101931.66;4113821;28;20464;-65
2023/05/07 07:25:20;;;;;;;;;;;;;;;10.86;70.03;101938.31;4115736;28;20060;-64
2023/05/07 07:27:23;;;;;;;;;;;;;;;10.97;68.68;101934.53;4113768;28;20711;-64
2023/05/07 07:29:28;;;;;;;;;;;;;;;11.00;68.73;101939.66;4114021;28;20018;-64
2023/05/07 07:31:31;;;;;;;;;;;;;;;11.05;68.44;101944.59;4111905;28;20013;-64
2023/05/07 07:33:33;;;;;;;;;;;;;;;11.05;68.67;101941.91;4114938;28;20017;-65
2023/05/07 07:35:35;;;;;;;;;;;;;;;11.05;68.60;101936.50;4114507;28;20021;-64
2023/05/07 07:37:40;;;;;;;;;;;;;;;11.08;68.86;101936.19;4113816;28;20278;-65
2023/05/07 07:39:42;;;;;;;;;;;;;;;11.10;69.03;101932.34;4102753;28;20070;-64
2023/05/07 07:41:49;;;;;;;;;;;;;;;11.15;68.57;101931.91;4108832;28;20025;-64
2023/05/07 07:43:52;;;;;;;;;;;;;;;11.20;68.37;101918.75;4118529;28;20028;-63
2023/05/07 07:45:56;;;;;;;;;;;;;;;11.27;67.83;101921.69;4109061;28;20005;-64
2023/05/07 07:47:58;;;;;;;;;;;;;;;11.29;67.87;101928.66;4113718;28;20440;-64
2023/05/07 07:50:03;;;;;;;;;;;;;;;11.29;67.67;101923.25;4119239;28;20013;-64
2023/05/07 07:52:05;;;;;;;;;;;;;;;11.31;68.03;101921.25;4120572;28;20022;-63
2023/05/07 07:54:10;;;;;;;;;;;;;;;11.33;67.79;101924.66;4106401;28;20017;-64
2023/05/07 07:56:13;;;;;;;;;;;;;;;11.36;67.19;101928.91;4106058;28;19965;-65
2023/05/07 07:58:16;;;;;;;;;;;;;;;11.34;67.65;101931.75;4113622;28;20861;-65
2023/05/07 08:00:19;;;;;;;;;;;;;;;11.44;66.93;101930.84;4104977;28;20021;-65
2023/05/07 08:02:24;;;;;;;;;;;;;;;11.43;67.33;101929.16;4128607;28;19926;-65
2023/05/07 08:04:26;;;;;;;;;;;;;;;11.41;67.45;101932.03;4121109;28;20021;-65
2023/05/07 08:06:31;;;;;;;;;;;;;;;11.44;67.51;101918.19;4113042;28;20392;-65
2023/05/07 08:08:34;;;;;;;;;;;;;;;11.47;67.21;101927.81;4114425;28;20013;-65
2023/05/07 08:10:38;;;;;;;;;;;;;;;11.51;67.26;101924.66;4112742;28;20020;-65
2023/05/07 08:12:45;;;;;;;;;;;;;;;11.53;66.48;101930.75;4121036;28;20008;-65
2023/05/07 08:14:48;;;;;;;;;;;;;;;11.59;66.65;101931.16;4104094;28;20025;-65
2023/05/07 08:16:50;;;;;;;;;;;;;;;11.60;66.55;101925.59;4105361;28;20448;-65
2023/05/07 08:18:52;;;;;;;;;;;;;;;11.61;66.49;101927.28;4112557;28;19969;-64
2023/05/07 08:20:54;;;;;;;;;;;;;;;11.62;66.24;101922.75;4115522;28;20018;-65
2023/05/07 08:22:59;;;;;;;;;;;;;;;11.67;66.39;101928.53;4112085;28;20024;-63
2023/05/07 08:25:04;;;;;;;;;;;;;;;11.73;66.32;101919.78;4121460;28;20353;-64
2023/05/07 08:27:09;;;;;;;;;;;;;;;11.78;66.32;101922.03;4111684;28;20040;-63
2023/05/07 08:29:11;;;;;;;;;;;;;;;11.81;66.00;101929.84;4114612;28;20045;-64
2023/05/07 08:31:16;;;;;;;;;;;;;;;11.87;65.52;101921.94;4111539;28;20009;-65
2023/05/07 08:33:20;;;;;;;;;;;;;;;11.88;65.50;101933.59;4121031;28;20024;-63
2023/05/07 08:35:23;;;;;;;;;;;;;;;11.89;65.79;101938.88;4115553;28;20379;-65
2023/05/07 08:37:25;;;;;;;;;;;;;;;11.89;65.67;101938.03;4111167;28;20410;-64
2023/05/07 08:39:27;;;;;;;;;;;;;;;11.89;65.28;101935.31;4112986;28;19961;-65
2023/05/07 08:41:30;;;;;;;;;;;;;;;11.97;65.30;101940.81;4111453;28;20013;-64
2023/05/07 08:43:33;;;;;;;;;;;;;;;12.05;64.89;101940.03;4111703;28;19957;-63
2023/05/07 08:45:35;;;;;;;;;;;;;;;12.05;64.90;101942.75;4111251;28;20013;-64
2023/05/07 08:47:45;;;;;;;;;;;;;;;12.06;64.90;101937.19;4121278;28;20021;-65
2023/05/07 08:49:48;;;;;;;;;;;;;;;12.13;64.86;101940.13;4112758;28;20025;-65
2023/05/07 08:51:51;;;;;;;;;;;;;;;12.18;64.53;101934.22;4113049;28;19930;-64
2023/05/07 08:53:55;;;;;;;;;;;;;;;12.20;64.44;101943.03;4120879;28;20021;-65
2023/05/07 08:56:02;;;;;;;;;;;;;;;12.26;63.98;101934.28;4105259;28;20021;-65
2023/05/07 08:58:06;;;;;;;;;;;;;;;12.30;64.31;101940.22;4121212;28;19954;-66
2023/05/07 09:00:11;;;;;;;;;;;;;;;12.27;64.14;101938.66;4113415;28;19930;-63
2023/05/07 09:02:16;;;;;;;;;;;;;;;12.31;64.12;101939.22;4118085;28;20456;-65
2023/05/07 09:04:20;;;;;;;;;;;;;;;12.38;63.59;101935.72;4088701;29;19935;-65
2023/05/07 09:06:22;;;;;;;;;;;;;;;12.40;63.48;101938.28;4089285;29;20010;-63
2023/05/07 09:08:25;;;;;;;;;;;;;;;12.42;63.61;101947.91;4112626;28;20017;-63
2023/05/07 09:10:27;;;;;;;;;;;;;;;12.40;64.05;101941.81;4119603;28;20117;-62
2023/05/07 09:12:29;;;;;;;;;;;;;;;12.47;63.37;101941.19;4120405;28;20024;-60
2023/05/07 09:14:34;;;;;;;;;;;;;;;12.44;63.69;101948.63;4120065;28;20017;-64
2023/05/07 09:16:37;;;;;;;;;;;;;;;12.49;63.34;101941.88;4119476;28;20017;-63
2023/05/07 09:18:42;;;;;;;;;;;;;;;12.50;64.03;101943.56;4119890;28;20034;-63
2023/05/07 09:20:48;;;;;;;;;;;;;;;12.55;63.73;101941.22;4112312;28;20021;-64
2023/05/07 09:22:51;;;;;;;;;;;;;;;12.55;63.30;101942.06;4103242;28;20017;-63
2023/05/07 09:24:53;;;;;;;;;;;;;;;12.56;63.51;101957.31;4120729;28;20001;-65
2023/05/07 09:27:00;;;;;;;;;;;;;;;12.51;63.51;101948.84;4119760;28;20469;-65
2023/05/07 09:29:02;;;;;;;;;;;;;;;12.53;63.36;101949.50;4112067;28;20025;-67
2023/05/07 09:31:05;;;;;;;;;;;;;;;12.54;63.40;101953.94;4112108;28;20028;-66
2023/05/07 09:33:07;;;;;;;;;;;;;;;12.56;63.40;101954.63;4111098;28;20052;-65
2023/05/07 09:35:15;;;;;;;;;;;;;;;12.59;62.82;101956.16;4110678;28;20472;-66
2023/05/07 09:37:19;;;;;;;;;;;;;;;12.61;62.76;101941.41;4113084;28;20024;-67
2023/05/07 09:39:22;;;;;;;;;;;;;;;12.65;62.27;101947.41;4103363;28;20028;-67
2023/05/07 09:41:24;;;;;;;;;;;;;;;12.64;62.62;101939.41;4112610;28;20555;-66
2023/05/07 09:43:35;;;;;;;;;;;;;;;12.61;62.66;101951.44;4119128;28;20017;-66
2023/05/07 09:45:38;;;;;;;;;;;;;;;12.56;62.84;101956.47;4118807;28;19930;-66
2023/05/07 09:47:41;;;;;;;;;;;;;;;12.60;62.72;101956.00;4120143;28;20024;-64
2023/05/07 09:49:43;;;;;;;;;;;;;;;12.64;62.77;101947.56;4104065;28;20013;-63
2023/05/07 09:51:49;;;;;;;;;;;;;;;12.64;62.69;101952.97;4103196;28;20560;-65
2023/05/07 09:53:53;;;;;;;;;;;;;;;12.70;62.52;101957.75;4120205;28;20032;-66
2023/05/07 09:55:54;;;;;;;;;;;;;;;12.73;62.14;101962.84;4119424;28;20021;-66
2023/05/07 09:57:57;;;;;;;;;;;;;;;12.70;62.59;101960.47;4119886;28;20112;-64
2023/05/07 09:59:59;;;;;;;;;;;;;;;12.68;62.65;101957.03;4127604;28;20020;-65
2023/05/07 10:02:05;;;;;;;;;;;;;;;12.64;62.69;101964.66;4110295;28;20020;-65
2023/05/07 10:04:09;;;;;;;;;;;;;;;12.62;63.02;101959.41;4111264;28;20137;-65
2023/05/07 10:06:12;;;;;;;;;;;;;;;12.64;62.96;101963.81;4120170;28;20296;-64
2023/05/07 10:08:16;;;;;;;;;;;;;;;12.65;62.54;101960.06;4112994;28;19930;-65
2023/05/07 10:10:23;;;;;;;;;;;;;;;12.73;62.35;101952.84;4108935;28;20021;-65
2023/05/07 10:12:26;;;;;;;;;;;;;;;12.76;62.17;101959.81;4110315;28;20391;-65
2023/05/07 10:14:27;;;;;;;;;;;;;;;12.79;61.55;101956.78;4119585;28;20012;-65
2023/05/07 10:16:30;;;;;;;;;;;;;;;12.81;61.20;101962.88;4110947;28;20017;-65
2023/05/07 10:18:32;;;;;;;;;;;;;;;12.74;61.94;101965.41;4118944;28;20024;-65
2023/05/07 10:20:40;;;;;;;;;;;;;;;12.72;62.13;101967.41;4119967;28;20017;-65
2023/05/07 10:22:47;;;;;;;;;;;;;;;12.72;62.05;101967.41;4119068;28;20049;-65
2023/05/07 10:24:52;;;;;;;;;;;;;;;12.72;61.82;101967.41;4120025;28;20016;-65
2023/05/07 10:26:57;;;;;;;;;;;;;;;12.78;61.29;101971.34;4119969;28;20017;-65
2023/05/07 10:29:01;;;;;;;;;;;;;;;12.78;61.14;101966.75;4113852;28;20024;-65
2023/05/07 10:31:07;;;;;;;;;;;;;;;12.83;60.94;101969.00;4119624;28;20029;-65
2023/05/07 10:33:16;;;;;;;;;;;;;;;12.74;61.41;101964.53;4118368;28;20024;-65